sensor_id;sensor_type;location;lat;lon;timestamp;P1;durP1;ratioP1;P2;durP2;ratioP2
32824;SDS011;51060;42.640;24.356;2023-03-17T00:01:08;1.30;;;1.20;;
32824;SDS011;51060;42.640;24.356;2023-03-17T00:03:38;1.93;;;1.20;;
32824;SDS011;51060;42.640;24.356;2023-03-17T00:06:04;2.60;;;1.40;;
32824;SDS011;51060;42.640;24.356;2023-03-17T00:08:32;1.10;;;1.00;;
32824;SDS011;51060;42.640;24.356;2023-03-17T00:11:00;0.80;;;0.80;;
32824;SDS011;51060;42.640;24.356;2023-03-17T00:13:26;0.70;;;0.70;;
32824;SDS011;51060;42.640;24.356;2023-03-17T00:15:53;0.80;;;0.80;;
32824;SDS011;51060;42.640;24.356;2023-03-17T00:18:24;0.70;;;0.70;;
32824;SDS011;51060;42.640;24.356;2023-03-17T00:20:50;0.90;;;0.87;;
32824;SDS011;51060;42.640;24.356;2023-03-17T00:23:20;0.97;;;0.97;;
32824;SDS011;51060;42.640;24.356;2023-03-17T00:25:49;1.20;;;1.00;;
32824;SDS011;51060;42.640;24.356;2023-03-17T00:28:18;1.20;;;0.97;;
32824;SDS011;51060;42.640;24.356;2023-03-17T00:30:46;0.70;;;0.60;;
32824;SDS011;51060;42.640;24.356;2023-03-17T00:33:13;0.60;;;0.60;;
32824;SDS011;51060;42.640;24.356;2023-03-17T00:35:43;0.70;;;0.70;;
32824;SDS011;51060;42.640;24.356;2023-03-17T00:38:14;0.70;;;0.70;;
32824;SDS011;51060;42.640;24.356;2023-03-17T00:40:41;0.60;;;0.50;;
32824;SDS011;51060;42.640;24.356;2023-03-17T00:43:08;0.70;;;0.70;;
32824;SDS011;51060;42.640;24.356;2023-03-17T00:45:34;0.70;;;0.70;;
32824;SDS011;51060;42.640;24.356;2023-03-17T00:48:01;0.70;;;0.70;;
32824;SDS011;51060;42.640;24.356;2023-03-17T00:50:28;0.50;;;0.50;;
32824;SDS011;51060;42.640;24.356;2023-03-17T00:52:54;0.57;;;0.57;;
32824;SDS011;51060;42.640;24.356;2023-03-17T00:55:22;0.77;;;0.77;;
32824;SDS011;51060;42.640;24.356;2023-03-17T00:57:49;1.13;;;0.80;;
32824;SDS011;51060;42.640;24.356;2023-03-17T01:00:22;2.50;;;1.70;;
32824;SDS011;51060;42.640;24.356;2023-03-17T01:02:50;1.50;;;1.40;;
32824;SDS011;51060;42.640;24.356;2023-03-17T01:05:17;1.20;;;1.10;;
32824;SDS011;51060;42.640;24.356;2023-03-17T01:07:44;1.33;;;1.10;;
32824;SDS011;51060;42.640;24.356;2023-03-17T01:10:24;1.20;;;1.10;;
32824;SDS011;51060;42.640;24.356;2023-03-17T01:12:54;0.60;;;0.60;;
32824;SDS011;51060;42.640;24.356;2023-03-17T01:15:22;0.47;;;0.47;;
32824;SDS011;51060;42.640;24.356;2023-03-17T01:17:50;0.50;;;0.50;;
32824;SDS011;51060;42.640;24.356;2023-03-17T01:20:26;1.60;;;1.00;;
32824;SDS011;51060;42.640;24.356;2023-03-17T01:22:58;1.40;;;0.90;;
32824;SDS011;51060;42.640;24.356;2023-03-17T01:25:24;0.80;;;0.80;;
32824;SDS011;51060;42.640;24.356;2023-03-17T01:27:52;1.10;;;1.00;;
32824;SDS011;51060;42.640;24.356;2023-03-17T01:30:21;1.10;;;0.90;;
32824;SDS011;51060;42.640;24.356;2023-03-17T01:32:50;1.20;;;0.87;;
32824;SDS011;51060;42.640;24.356;2023-03-17T01:35:16;1.57;;;0.80;;
32824;SDS011;51060;42.640;24.356;2023-03-17T01:37:42;1.60;;;0.70;;
32824;SDS011;51060;42.640;24.356;2023-03-17T01:40:13;0.67;;;0.67;;
32824;SDS011;51060;42.640;24.356;2023-03-17T01:42:43;0.70;;;0.70;;
32824;SDS011;51060;42.640;24.356;2023-03-17T01:48:13;1.20;;;1.10;;
32824;SDS011;51060;42.640;24.356;2023-03-17T01:50:39;3.00;;;1.50;;
32824;SDS011;51060;42.640;24.356;2023-03-17T01:53:05;2.67;;;1.77;;
32824;SDS011;51060;42.640;24.356;2023-03-17T01:55:32;1.67;;;1.57;;
32824;SDS011;51060;42.640;24.356;2023-03-17T01:57:57;1.57;;;1.40;;
32824;SDS011;51060;42.640;24.356;2023-03-17T02:00:23;1.20;;;1.10;;
32824;SDS011;51060;42.640;24.356;2023-03-17T02:02:52;0.90;;;0.90;;
32824;SDS011;51060;42.640;24.356;2023-03-17T02:05:26;1.33;;;1.10;;
32824;SDS011;51060;42.640;24.356;2023-03-17T02:07:54;1.40;;;1.30;;
32824;SDS011;51060;42.640;24.356;2023-03-17T02:10:21;1.27;;;1.07;;
32824;SDS011;51060;42.640;24.356;2023-03-17T02:12:52;1.67;;;1.40;;
32824;SDS011;51060;42.640;24.356;2023-03-17T02:15:20;1.53;;;1.40;;
32824;SDS011;51060;42.640;24.356;2023-03-17T02:17:46;1.43;;;1.33;;
32824;SDS011;51060;42.640;24.356;2023-03-17T02:22:47;1.60;;;1.50;;
32824;SDS011;51060;42.640;24.356;2023-03-17T02:25:14;1.50;;;1.40;;
32824;SDS011;51060;42.640;24.356;2023-03-17T02:27:41;1.70;;;1.60;;
32824;SDS011;51060;42.640;24.356;2023-03-17T02:30:09;1.60;;;1.50;;
32824;SDS011;51060;42.640;24.356;2023-03-17T02:32:36;1.50;;;1.40;;
32824;SDS011;51060;42.640;24.356;2023-03-17T02:35:03;1.70;;;1.60;;
32824;SDS011;51060;42.640;24.356;2023-03-17T02:37:31;2.20;;;1.93;;
32824;SDS011;51060;42.640;24.356;2023-03-17T02:39:57;1.97;;;1.80;;
32824;SDS011;51060;42.640;24.356;2023-03-17T02:42:23;2.53;;;1.97;;
32824;SDS011;51060;42.640;24.356;2023-03-17T02:44:48;2.03;;;1.83;;
32824;SDS011;51060;42.640;24.356;2023-03-17T02:47:14;1.60;;;1.50;;
32824;SDS011;51060;42.640;24.356;2023-03-17T02:49:41;1.93;;;1.73;;
32824;SDS011;51060;42.640;24.356;2023-03-17T02:52:07;2.13;;;1.93;;
32824;SDS011;51060;42.640;24.356;2023-03-17T02:54:33;3.13;;;2.20;;
32824;SDS011;51060;42.640;24.356;2023-03-17T02:56:59;2.60;;;2.10;;
32824;SDS011;51060;42.640;24.356;2023-03-17T02:59:25;2.40;;;2.10;;
32824;SDS011;51060;42.640;24.356;2023-03-17T03:01:50;2.80;;;2.10;;
32824;SDS011;51060;42.640;24.356;2023-03-17T03:04:17;2.30;;;2.10;;
32824;SDS011;51060;42.640;24.356;2023-03-17T03:06:44;4.10;;;3.20;;
32824;SDS011;51060;42.640;24.356;2023-03-17T03:09:10;4.03;;;2.50;;
32824;SDS011;51060;42.640;24.356;2023-03-17T03:11:37;2.67;;;2.37;;
32824;SDS011;51060;42.640;24.356;2023-03-17T03:14:03;2.23;;;1.90;;
32824;SDS011;51060;42.640;24.356;2023-03-17T03:16:30;3.53;;;2.60;;
32824;SDS011;51060;42.640;24.356;2023-03-17T03:18:56;2.50;;;2.17;;
32824;SDS011;51060;42.640;24.356;2023-03-17T03:21:22;2.80;;;2.40;;
32824;SDS011;51060;42.640;24.356;2023-03-17T03:23:47;2.43;;;2.23;;
32824;SDS011;51060;42.640;24.356;2023-03-17T03:26:13;2.60;;;2.33;;
32824;SDS011;51060;42.640;24.356;2023-03-17T03:28:39;2.53;;;2.10;;
32824;SDS011;51060;42.640;24.356;2023-03-17T03:31:04;2.20;;;2.00;;
32824;SDS011;51060;42.640;24.356;2023-03-17T03:33:31;2.30;;;2.00;;
32824;SDS011;51060;42.640;24.356;2023-03-17T03:35:57;3.47;;;2.20;;
32824;SDS011;51060;42.640;24.356;2023-03-17T03:38:23;1.90;;;1.70;;
32824;SDS011;51060;42.640;24.356;2023-03-17T03:40:50;2.20;;;1.97;;
32824;SDS011;51060;42.640;24.356;2023-03-17T03:43:15;2.37;;;1.93;;
32824;SDS011;51060;42.640;24.356;2023-03-17T03:45:41;2.30;;;2.10;;
32824;SDS011;51060;42.640;24.356;2023-03-17T03:48:06;3.40;;;2.33;;
32824;SDS011;51060;42.640;24.356;2023-03-17T03:50:32;2.10;;;1.90;;
32824;SDS011;51060;42.640;24.356;2023-03-17T03:52:58;1.93;;;1.73;;
32824;SDS011;51060;42.640;24.356;2023-03-17T03:55:23;1.97;;;1.60;;
32824;SDS011;51060;42.640;24.356;2023-03-17T03:57:49;3.87;;;2.10;;
32824;SDS011;51060;42.640;24.356;2023-03-17T04:00:15;3.40;;;2.63;;
32824;SDS011;51060;42.640;24.356;2023-03-17T04:02:42;1.97;;;1.77;;
32824;SDS011;51060;42.640;24.356;2023-03-17T04:05:11;2.13;;;1.73;;
32824;SDS011;51060;42.640;24.356;2023-03-17T04:07:41;2.67;;;2.00;;
32824;SDS011;51060;42.640;24.356;2023-03-17T04:10:08;1.80;;;1.70;;
32824;SDS011;51060;42.640;24.356;2023-03-17T04:12:34;1.70;;;1.60;;
32824;SDS011;51060;42.640;24.356;2023-03-17T04:15:00;3.77;;;2.77;;
32824;SDS011;51060;42.640;24.356;2023-03-17T04:17:26;2.60;;;1.70;;
32824;SDS011;51060;42.640;24.356;2023-03-17T04:19:51;1.60;;;1.40;;
32824;SDS011;51060;42.640;24.356;2023-03-17T04:22:17;1.97;;;1.77;;
32824;SDS011;51060;42.640;24.356;2023-03-17T04:24:43;1.80;;;1.70;;
32824;SDS011;51060;42.640;24.356;2023-03-17T04:27:09;3.70;;;2.63;;
32824;SDS011;51060;42.640;24.356;2023-03-17T04:29:34;3.00;;;2.30;;
32824;SDS011;51060;42.640;24.356;2023-03-17T04:32:00;2.57;;;2.00;;
32824;SDS011;51060;42.640;24.356;2023-03-17T04:34:26;2.33;;;1.90;;
32824;SDS011;51060;42.640;24.356;2023-03-17T04:36:52;3.23;;;2.40;;
32824;SDS011;51060;42.640;24.356;2023-03-17T04:39:18;3.17;;;2.17;;
32824;SDS011;51060;42.640;24.356;2023-03-17T04:41:47;3.97;;;3.17;;
32824;SDS011;51060;42.640;24.356;2023-03-17T04:44:13;3.40;;;2.50;;
32824;SDS011;51060;42.640;24.356;2023-03-17T04:46:38;4.80;;;2.87;;
32824;SDS011;51060;42.640;24.356;2023-03-17T04:49:04;2.37;;;2.17;;
32824;SDS011;51060;42.640;24.356;2023-03-17T04:51:31;2.93;;;2.03;;
32824;SDS011;51060;42.640;24.356;2023-03-17T04:53:56;2.73;;;2.40;;
32824;SDS011;51060;42.640;24.356;2023-03-17T04:56:22;2.67;;;2.23;;
32824;SDS011;51060;42.640;24.356;2023-03-17T04:58:47;2.53;;;2.30;;
32824;SDS011;51060;42.640;24.356;2023-03-17T05:01:13;2.83;;;2.53;;
32824;SDS011;51060;42.640;24.356;2023-03-17T05:03:39;4.97;;;3.67;;
32824;SDS011;51060;42.640;24.356;2023-03-17T05:06:04;6.83;;;3.00;;
32824;SDS011;51060;42.640;24.356;2023-03-17T05:08:31;3.83;;;3.37;;
32824;SDS011;51060;42.640;24.356;2023-03-17T05:10:57;3.73;;;3.03;;
32824;SDS011;51060;42.640;24.356;2023-03-17T05:13:23;3.73;;;3.13;;
32824;SDS011;51060;42.640;24.356;2023-03-17T05:15:50;4.63;;;3.10;;
32824;SDS011;51060;42.640;24.356;2023-03-17T05:18:17;4.23;;;3.00;;
32824;SDS011;51060;42.640;24.356;2023-03-17T05:20:43;4.30;;;3.30;;
32824;SDS011;51060;42.640;24.356;2023-03-17T05:23:09;2.53;;;2.33;;
32824;SDS011;51060;42.640;24.356;2023-03-17T05:25:35;5.63;;;4.10;;
32824;SDS011;51060;42.640;24.356;2023-03-17T05:28:01;3.90;;;3.50;;
32824;SDS011;51060;42.640;24.356;2023-03-17T05:30:27;2.80;;;2.57;;
32824;SDS011;51060;42.640;24.356;2023-03-17T05:32:53;2.63;;;2.03;;
32824;SDS011;51060;42.640;24.356;2023-03-17T05:35:18;4.33;;;3.30;;
32824;SDS011;51060;42.640;24.356;2023-03-17T05:37:44;2.87;;;2.43;;
32824;SDS011;51060;42.640;24.356;2023-03-17T05:40:11;3.13;;;2.50;;
32824;SDS011;51060;42.640;24.356;2023-03-17T05:42:38;3.33;;;2.80;;
32824;SDS011;51060;42.640;24.356;2023-03-17T05:45:06;4.80;;;3.40;;
32824;SDS011;51060;42.640;24.356;2023-03-17T05:47:32;3.23;;;2.83;;
32824;SDS011;51060;42.640;24.356;2023-03-17T05:50:00;3.27;;;2.97;;
32824;SDS011;51060;42.640;24.356;2023-03-17T05:52:26;2.90;;;2.50;;
32824;SDS011;51060;42.640;24.356;2023-03-17T05:54:53;4.73;;;3.57;;
32824;SDS011;51060;42.640;24.356;2023-03-17T05:57:19;4.43;;;3.70;;
32824;SDS011;51060;42.640;24.356;2023-03-17T05:59:45;3.80;;;2.93;;
32824;SDS011;51060;42.640;24.356;2023-03-17T06:02:12;5.03;;;4.40;;
32824;SDS011;51060;42.640;24.356;2023-03-17T06:04:38;2.50;;;2.30;;
32824;SDS011;51060;42.640;24.356;2023-03-17T06:07:06;2.53;;;2.33;;
32824;SDS011;51060;42.640;24.356;2023-03-17T06:09:33;2.67;;;2.10;;
32824;SDS011;51060;42.640;24.356;2023-03-17T06:11:59;2.93;;;1.90;;
32824;SDS011;51060;42.640;24.356;2023-03-17T06:14:25;3.00;;;2.30;;
32824;SDS011;51060;42.640;24.356;2023-03-17T06:16:51;3.40;;;2.30;;
32824;SDS011;51060;42.640;24.356;2023-03-17T06:19:16;2.40;;;2.20;;
32824;SDS011;51060;42.640;24.356;2023-03-17T06:21:42;3.07;;;2.60;;
32824;SDS011;51060;42.640;24.356;2023-03-17T06:24:08;3.30;;;2.40;;
32824;SDS011;51060;42.640;24.356;2023-03-17T06:26:34;3.10;;;2.57;;
32824;SDS011;51060;42.640;24.356;2023-03-17T06:29:01;2.50;;;1.80;;
32824;SDS011;51060;42.640;24.356;2023-03-17T06:31:28;2.80;;;2.47;;
32824;SDS011;51060;42.640;24.356;2023-03-17T06:33:54;3.10;;;2.80;;
32824;SDS011;51060;42.640;24.356;2023-03-17T06:36:21;2.23;;;2.03;;
32824;SDS011;51060;42.640;24.356;2023-03-17T06:38:47;5.00;;;2.27;;
32824;SDS011;51060;42.640;24.356;2023-03-17T06:41:13;2.50;;;1.80;;
32824;SDS011;51060;42.640;24.356;2023-03-17T06:43:39;8.73;;;6.53;;
32824;SDS011;51060;42.640;24.356;2023-03-17T06:46:05;5.70;;;4.10;;
32824;SDS011;51060;42.640;24.356;2023-03-17T06:48:31;1.90;;;1.70;;
32824;SDS011;51060;42.640;24.356;2023-03-17T06:50:58;2.80;;;1.90;;
32824;SDS011;51060;42.640;24.356;2023-03-17T06:53:27;4.70;;;2.80;;
32824;SDS011;51060;42.640;24.356;2023-03-17T06:55:52;4.97;;;3.20;;
32824;SDS011;51060;42.640;24.356;2023-03-17T06:58:18;4.10;;;3.10;;
32824;SDS011;51060;42.640;24.356;2023-03-17T07:00:45;3.00;;;2.20;;
32824;SDS011;51060;42.640;24.356;2023-03-17T07:03:13;4.43;;;3.20;;
32824;SDS011;51060;42.640;24.356;2023-03-17T07:05:40;2.50;;;2.30;;
32824;SDS011;51060;42.640;24.356;2023-03-17T07:08:06;2.40;;;2.20;;
32824;SDS011;51060;42.640;24.356;2023-03-17T07:10:32;3.30;;;2.37;;
32824;SDS011;51060;42.640;24.356;2023-03-17T07:12:58;2.70;;;2.00;;
32824;SDS011;51060;42.640;24.356;2023-03-17T07:15:23;2.43;;;2.10;;
32824;SDS011;51060;42.640;24.356;2023-03-17T07:17:50;18.93;;;9.47;;
32824;SDS011;51060;42.640;24.356;2023-03-17T07:20:16;30.77;;;13.97;;
32824;SDS011;51060;42.640;24.356;2023-03-17T07:22:41;32.07;;;15.93;;
32824;SDS011;51060;42.640;24.356;2023-03-17T07:25:07;36.47;;;16.37;;
32824;SDS011;51060;42.640;24.356;2023-03-17T07:27:35;38.97;;;16.40;;
32824;SDS011;51060;42.640;24.356;2023-03-17T07:30:01;5.07;;;3.67;;
32824;SDS011;51060;42.640;24.356;2023-03-17T07:32:29;15.03;;;7.83;;
32824;SDS011;51060;42.640;24.356;2023-03-17T07:34:55;8.10;;;4.93;;
32824;SDS011;51060;42.640;24.356;2023-03-17T07:37:21;14.20;;;8.03;;
32824;SDS011;51060;42.640;24.356;2023-03-17T07:39:47;16.73;;;9.00;;
32824;SDS011;51060;42.640;24.356;2023-03-17T07:42:13;9.97;;;6.00;;
32824;SDS011;51060;42.640;24.356;2023-03-17T07:44:39;8.20;;;6.50;;
32824;SDS011;51060;42.640;24.356;2023-03-17T07:47:05;3.97;;;2.80;;
32824;SDS011;51060;42.640;24.356;2023-03-17T07:49:32;5.13;;;2.23;;
32824;SDS011;51060;42.640;24.356;2023-03-17T07:52:01;2.60;;;1.80;;
32824;SDS011;51060;42.640;24.356;2023-03-17T07:54:27;2.40;;;2.10;;
32824;SDS011;51060;42.640;24.356;2023-03-17T07:56:55;1.63;;;1.53;;
32824;SDS011;51060;42.640;24.356;2023-03-17T07:59:21;2.33;;;1.83;;
32824;SDS011;51060;42.640;24.356;2023-03-17T08:01:47;1.67;;;1.47;;
32824;SDS011;51060;42.640;24.356;2023-03-17T08:04:13;1.70;;;1.60;;
32824;SDS011;51060;42.640;24.356;2023-03-17T08:06:39;2.40;;;1.87;;
32824;SDS011;51060;42.640;24.356;2023-03-17T08:09:06;3.40;;;2.97;;
32824;SDS011;51060;42.640;24.356;2023-03-17T08:11:34;2.57;;;2.00;;
32824;SDS011;51060;42.640;24.356;2023-03-17T08:14:00;3.70;;;2.80;;
32824;SDS011;51060;42.640;24.356;2023-03-17T08:16:27;2.10;;;1.80;;
32824;SDS011;51060;42.640;24.356;2023-03-17T08:18:54;4.40;;;3.77;;
32824;SDS011;51060;42.640;24.356;2023-03-17T08:21:20;4.87;;;3.60;;
32824;SDS011;51060;42.640;24.356;2023-03-17T08:23:45;7.60;;;6.10;;
32824;SDS011;51060;42.640;24.356;2023-03-17T08:26:11;2.83;;;2.60;;
32824;SDS011;51060;42.640;24.356;2023-03-17T08:28:38;2.43;;;2.23;;
32824;SDS011;51060;42.640;24.356;2023-03-17T08:31:05;2.40;;;2.20;;
32824;SDS011;51060;42.640;24.356;2023-03-17T08:33:32;2.60;;;1.87;;
32824;SDS011;51060;42.640;24.356;2023-03-17T08:35:58;2.80;;;2.60;;
32824;SDS011;51060;42.640;24.356;2023-03-17T08:38:24;1.53;;;1.33;;
32824;SDS011;51060;42.640;24.356;2023-03-17T08:40:50;2.47;;;2.03;;
32824;SDS011;51060;42.640;24.356;2023-03-17T08:43:16;2.40;;;1.60;;
32824;SDS011;51060;42.640;24.356;2023-03-17T08:45:42;2.60;;;2.23;;
32824;SDS011;51060;42.640;24.356;2023-03-17T08:48:08;2.20;;;1.67;;
32824;SDS011;51060;42.640;24.356;2023-03-17T08:50:34;1.67;;;1.57;;
32824;SDS011;51060;42.640;24.356;2023-03-17T08:52:59;2.40;;;2.20;;
32824;SDS011;51060;42.640;24.356;2023-03-17T08:55:25;1.93;;;1.73;;
32824;SDS011;51060;42.640;24.356;2023-03-17T08:57:51;3.40;;;2.87;;
32824;SDS011;51060;42.640;24.356;2023-03-17T09:00:18;4.63;;;2.90;;
32824;SDS011;51060;42.640;24.356;2023-03-17T09:02:45;2.30;;;2.10;;
32824;SDS011;51060;42.640;24.356;2023-03-17T09:05:11;2.27;;;1.80;;
32824;SDS011;51060;42.640;24.356;2023-03-17T09:07:41;2.97;;;2.20;;
32824;SDS011;51060;42.640;24.356;2023-03-17T09:10:08;2.23;;;2.00;;
32824;SDS011;51060;42.640;24.356;2023-03-17T09:12:35;3.43;;;3.13;;
32824;SDS011;51060;42.640;24.356;2023-03-17T09:15:05;2.70;;;2.47;;
32824;SDS011;51060;42.640;24.356;2023-03-17T09:17:31;5.10;;;4.70;;
32824;SDS011;51060;42.640;24.356;2023-03-17T09:19:57;3.00;;;2.30;;
32824;SDS011;51060;42.640;24.356;2023-03-17T09:22:23;2.43;;;2.20;;
32824;SDS011;51060;42.640;24.356;2023-03-17T09:24:49;2.17;;;1.97;;
32824;SDS011;51060;42.640;24.356;2023-03-17T09:27:15;4.83;;;2.50;;
32824;SDS011;51060;42.640;24.356;2023-03-17T09:29:40;3.17;;;2.47;;
32824;SDS011;51060;42.640;24.356;2023-03-17T09:32:06;2.03;;;1.90;;
32824;SDS011;51060;42.640;24.356;2023-03-17T09:34:32;1.90;;;1.80;;
32824;SDS011;51060;42.640;24.356;2023-03-17T09:36:59;4.47;;;2.83;;
32824;SDS011;51060;42.640;24.356;2023-03-17T09:39:25;3.27;;;2.00;;
32824;SDS011;51060;42.640;24.356;2023-03-17T09:45:30;2.53;;;2.10;;
32824;SDS011;51060;42.640;24.356;2023-03-17T09:47:52;5.70;;;4.00;;
32824;SDS011;51060;42.640;24.356;2023-03-17T09:50:56;3.33;;;2.40;;
32824;SDS011;51060;42.640;24.356;2023-03-17T09:53:27;5.50;;;3.60;;
32824;SDS011;51060;42.640;24.356;2023-03-17T09:55:58;15.07;;;9.60;;
32824;SDS011;51060;42.640;24.356;2023-03-17T09:58:31;4.87;;;4.23;;
32824;SDS011;51060;42.640;24.356;2023-03-17T10:00:58;15.70;;;9.90;;
32824;SDS011;51060;42.640;24.356;2023-03-17T10:03:25;6.50;;;4.27;;
32824;SDS011;51060;42.640;24.356;2023-03-17T10:05:51;7.37;;;4.97;;
32824;SDS011;51060;42.640;24.356;2023-03-17T10:08:30;4.10;;;3.23;;
32824;SDS011;51060;42.640;24.356;2023-03-17T10:16:26;12.47;;;7.97;;
32824;SDS011;51060;42.640;24.356;2023-03-17T10:19:52;3.93;;;3.00;;
32824;SDS011;51060;42.640;24.356;2023-03-17T10:21:57;2.20;;;2.00;;
32824;SDS011;51060;42.640;24.356;2023-03-17T10:24:29;4.50;;;2.90;;
32824;SDS011;51060;42.640;24.356;2023-03-17T10:26:57;3.30;;;2.70;;
32824;SDS011;51060;42.640;24.356;2023-03-17T10:29:26;3.70;;;2.67;;
32824;SDS011;51060;42.640;24.356;2023-03-17T10:31:53;9.70;;;5.80;;
32824;SDS011;51060;42.640;24.356;2023-03-17T10:34:22;4.07;;;2.30;;
32824;SDS011;51060;42.640;24.356;2023-03-17T10:36:49;9.20;;;5.33;;
32824;SDS011;51060;42.640;24.356;2023-03-17T10:39:20;10.10;;;6.00;;
32824;SDS011;51060;42.640;24.356;2023-03-17T10:41:58;7.27;;;4.90;;
32824;SDS011;51060;42.640;24.356;2023-03-17T10:47:00;7.17;;;4.10;;
32824;SDS011;51060;42.640;24.356;2023-03-17T10:49:31;4.70;;;3.93;;
32824;SDS011;51060;42.640;24.356;2023-03-17T10:51:59;10.80;;;7.03;;
32824;SDS011;51060;42.640;24.356;2023-03-17T10:54:32;3.20;;;2.43;;
32824;SDS011;51060;42.640;24.356;2023-03-17T10:57:05;4.93;;;4.30;;
32824;SDS011;51060;42.640;24.356;2023-03-17T10:59:36;3.07;;;2.60;;
32824;SDS011;51060;42.640;24.356;2023-03-17T11:02:11;14.60;;;9.80;;
32824;SDS011;51060;42.640;24.356;2023-03-17T11:04:51;2.83;;;2.63;;
32824;SDS011;51060;42.640;24.356;2023-03-17T11:07:20;3.90;;;2.83;;
32824;SDS011;51060;42.640;24.356;2023-03-17T11:09:55;3.00;;;2.70;;
32824;SDS011;51060;42.640;24.356;2023-03-17T11:12:37;3.80;;;3.50;;
32824;SDS011;51060;42.640;24.356;2023-03-17T11:15:05;2.13;;;1.93;;
32824;SDS011;51060;42.640;24.356;2023-03-17T11:17:50;2.90;;;2.10;;
32824;SDS011;51060;42.640;24.356;2023-03-17T11:20:35;2.00;;;1.90;;
32824;SDS011;51060;42.640;24.356;2023-03-17T11:29:16;3.20;;;2.80;;
32824;SDS011;51060;42.640;24.356;2023-03-17T11:34:21;4.60;;;3.30;;
32824;SDS011;51060;42.640;24.356;2023-03-17T11:39:52;2.17;;;1.97;;
32824;SDS011;51060;42.640;24.356;2023-03-17T11:42:27;2.87;;;2.57;;
32824;SDS011;51060;42.640;24.356;2023-03-17T11:46:17;2.37;;;1.80;;
32824;SDS011;51060;42.640;24.356;2023-03-17T11:51:13;1.80;;;1.70;;
32824;SDS011;51060;42.640;24.356;2023-03-17T11:56:50;3.27;;;2.97;;
32824;SDS011;51060;42.640;24.356;2023-03-17T12:01:54;4.90;;;3.57;;
32824;SDS011;51060;42.640;24.356;2023-03-17T12:04:28;6.10;;;4.53;;
32824;SDS011;51060;42.640;24.356;2023-03-17T12:07:02;2.93;;;2.50;;
32824;SDS011;51060;42.640;24.356;2023-03-17T12:09:35;1.50;;;1.40;;
32824;SDS011;51060;42.640;24.356;2023-03-17T12:12:05;2.73;;;2.50;;
32824;SDS011;51060;42.640;24.356;2023-03-17T12:14:43;2.93;;;1.80;;
32824;SDS011;51060;42.640;24.356;2023-03-17T12:17:20;2.50;;;2.30;;
32824;SDS011;51060;42.640;24.356;2023-03-17T12:22:17;4.70;;;3.67;;
32824;SDS011;51060;42.640;24.356;2023-03-17T12:24:49;2.87;;;2.67;;
32824;SDS011;51060;42.640;24.356;2023-03-17T12:30:21;5.03;;;3.60;;
32824;SDS011;51060;42.640;24.356;2023-03-17T12:35:44;3.73;;;3.33;;
32824;SDS011;51060;42.640;24.356;2023-03-17T12:38:11;7.27;;;4.67;;
32824;SDS011;51060;42.640;24.356;2023-03-17T12:41:10;3.73;;;2.63;;
32824;SDS011;51060;42.640;24.356;2023-03-17T12:50:14;4.00;;;3.60;;
32824;SDS011;51060;42.640;24.356;2023-03-17T12:55:13;5.17;;;4.10;;
32824;SDS011;51060;42.640;24.356;2023-03-17T12:57:41;4.07;;;3.57;;
32824;SDS011;51060;42.640;24.356;2023-03-17T13:00:19;3.87;;;3.27;;
32824;SDS011;51060;42.640;24.356;2023-03-17T13:03:12;4.43;;;3.60;;
32824;SDS011;51060;42.640;24.356;2023-03-17T13:05:45;2.80;;;2.57;;
32824;SDS011;51060;42.640;24.356;2023-03-17T13:08:15;4.00;;;3.60;;
32824;SDS011;51060;42.640;24.356;2023-03-17T13:13:54;3.80;;;3.50;;
32824;SDS011;51060;42.640;24.356;2023-03-17T13:16:39;4.07;;;3.50;;
32824;SDS011;51060;42.640;24.356;2023-03-17T13:19:16;3.57;;;3.20;;
32824;SDS011;51060;42.640;24.356;2023-03-17T13:21:51;4.20;;;2.77;;
32824;SDS011;51060;42.640;24.356;2023-03-17T13:24:21;4.50;;;3.20;;
32824;SDS011;51060;42.640;24.356;2023-03-17T13:26:50;5.23;;;3.37;;
32824;SDS011;51060;42.640;24.356;2023-03-17T13:37:30;5.43;;;4.20;;
32824;SDS011;51060;42.640;24.356;2023-03-17T13:43:12;4.23;;;3.50;;
32824;SDS011;51060;42.640;24.356;2023-03-17T13:48:54;4.00;;;3.60;;
32824;SDS011;51060;42.640;24.356;2023-03-17T13:51:24;4.33;;;3.93;;
32824;SDS011;51060;42.640;24.356;2023-03-17T13:54:06;3.23;;;2.83;;
32824;SDS011;51060;42.640;24.356;2023-03-17T14:01:53;9.43;;;8.53;;
32824;SDS011;51060;42.640;24.356;2023-03-17T14:04:25;5.53;;;4.10;;
32824;SDS011;51060;42.640;24.356;2023-03-17T14:06:54;4.00;;;3.60;;
32824;SDS011;51060;42.640;24.356;2023-03-17T14:09:43;4.47;;;3.93;;
32824;SDS011;51060;42.640;24.356;2023-03-17T14:12:53;5.10;;;3.60;;
32824;SDS011;51060;42.640;24.356;2023-03-17T14:15:45;5.00;;;3.90;;
32824;SDS011;51060;42.640;24.356;2023-03-17T14:20:32;5.23;;;4.73;;
32824;SDS011;51060;42.640;24.356;2023-03-17T14:22:59;7.07;;;5.20;;
32824;SDS011;51060;42.640;24.356;2023-03-17T14:25:31;7.27;;;5.57;;
32824;SDS011;51060;42.640;24.356;2023-03-17T14:27:58;11.50;;;6.93;;
32824;SDS011;51060;42.640;24.356;2023-03-17T14:30:25;10.57;;;6.97;;
32824;SDS011;51060;42.640;24.356;2023-03-17T14:35:35;10.37;;;8.40;;
32824;SDS011;51060;42.640;24.356;2023-03-17T14:38:07;6.77;;;5.70;;
32824;SDS011;51060;42.640;24.356;2023-03-17T14:43:29;42.17;;;23.60;;
32824;SDS011;51060;42.640;24.356;2023-03-17T14:46:05;10.60;;;7.33;;
32824;SDS011;51060;42.640;24.356;2023-03-17T14:48:33;8.03;;;6.50;;
32824;SDS011;51060;42.640;24.356;2023-03-17T14:51:03;14.63;;;10.60;;
32824;SDS011;51060;42.640;24.356;2023-03-17T14:53:49;8.60;;;7.70;;
32824;SDS011;51060;42.640;24.356;2023-03-17T14:56:19;8.43;;;7.63;;
32824;SDS011;51060;42.640;24.356;2023-03-17T14:58:47;8.17;;;7.37;;
32824;SDS011;51060;42.640;24.356;2023-03-17T15:04:13;8.20;;;6.00;;
32824;SDS011;51060;42.640;24.356;2023-03-17T15:06:48;10.90;;;8.30;;
32824;SDS011;51060;42.640;24.356;2023-03-17T15:09:19;12.07;;;8.70;;
32824;SDS011;51060;42.640;24.356;2023-03-17T15:11:52;8.10;;;5.73;;
32824;SDS011;51060;42.640;24.356;2023-03-17T15:14:30;6.80;;;5.77;;
32824;SDS011;51060;42.640;24.356;2023-03-17T15:16:59;4.87;;;4.37;;
32824;SDS011;51060;42.640;24.356;2023-03-17T15:19:45;7.00;;;4.47;;
32824;SDS011;51060;42.640;24.356;2023-03-17T15:22:39;5.33;;;4.67;;
32824;SDS011;51060;42.640;24.356;2023-03-17T15:25:19;5.27;;;4.40;;
32824;SDS011;51060;42.640;24.356;2023-03-17T15:27:49;5.60;;;5.00;;
32824;SDS011;51060;42.640;24.356;2023-03-17T15:30:16;4.53;;;4.03;;
32824;SDS011;51060;42.640;24.356;2023-03-17T15:32:42;3.53;;;3.23;;
32824;SDS011;51060;42.640;24.356;2023-03-17T15:35:12;5.60;;;3.47;;
32824;SDS011;51060;42.640;24.356;2023-03-17T15:37:38;5.00;;;4.30;;
32824;SDS011;51060;42.640;24.356;2023-03-17T15:40:04;4.87;;;3.90;;
32824;SDS011;51060;42.640;24.356;2023-03-17T15:42:32;3.50;;;3.20;;
32824;SDS011;51060;42.640;24.356;2023-03-17T15:45:02;10.07;;;6.73;;
32824;SDS011;51060;42.640;24.356;2023-03-17T15:47:29;9.23;;;7.40;;
32824;SDS011;51060;42.640;24.356;2023-03-17T15:49:56;7.53;;;6.30;;
32824;SDS011;51060;42.640;24.356;2023-03-17T15:52:48;6.13;;;4.80;;
32824;SDS011;51060;42.640;24.356;2023-03-17T15:55:14;4.07;;;3.67;;
32824;SDS011;51060;42.640;24.356;2023-03-17T15:57:42;4.67;;;4.13;;
32824;SDS011;51060;42.640;24.356;2023-03-17T16:00:10;5.60;;;5.10;;
32824;SDS011;51060;42.640;24.356;2023-03-17T16:02:42;5.30;;;4.10;;
32824;SDS011;51060;42.640;24.356;2023-03-17T16:05:16;7.77;;;5.90;;
32824;SDS011;51060;42.640;24.356;2023-03-17T16:07:43;7.20;;;5.90;;
32824;SDS011;51060;42.640;24.356;2023-03-17T16:10:13;7.40;;;6.10;;
32824;SDS011;51060;42.640;24.356;2023-03-17T16:12:40;7.00;;;5.83;;